Latest Weather Observations for Casino

IDN60801

Issued at 8:33 am EST Monday 26 September 2016 (issued every 30 minutes, with the page automatically refreshed every 10 minutes)

About weather observations | Map of weather stations | Latest weather observations for NSW | Other Formats
Station Details ID: 058208 Name: CASINO AIRPORT AWS Lat: -28.88 Lon: 153.06 Height: 20.9 m
Data from the previous 72 hours. | See also: Recent months at Casino
Date/Time
EST
Temp
°C
App
Temp
°C
Dew
Point
°C
Rel
Hum
%
Delta-T
°C
Wind Press
QNH
hPa
Press
MSL
hPa
Rain since
9am
mm
Dir  Spd
km/h
Gust
km/h
Spd
kts
Gust
kts
26/08:30am 20.1 18.5 10.2 53 5.3 NNW 9 15 5 8 1013.3 1013.3 0.0
26/08:00am 19.1 17.5 10.1 56 4.8 NW 9 13 5 7 1013.3 1013.3 0.0
26/07:30am 17.5 16.0 10.6 64 3.7 NW 9 13 5 7 1013.2 1013.2 0.0
26/07:00am 15.0 13.9 10.6 75 2.3 WNW 7 11 4 6 1013.0 1013.0 0.0
26/06:30am 12.1 12.2 10.2 88 1.0 CALM 0 0 0 0 1012.5 1012.5 0.0
26/06:00am 9.5 9.1 8.1 91 0.7 CALM 0 0 0 0 1012.0 1012.0 0.0
26/05:30am 8.1 5.8 5.0 81 1.4 WNW 6 9 3 5 1011.7 1011.7 0.0
26/05:00am 10.7 8.7 8.6 87 1.0 WNW 9 11 5 6 1011.5 1011.5 0.0
26/04:30am 10.9 9.3 8.1 83 1.4 NNW 6 9 3 5 1011.0 1011.0 0.0
26/04:00am 13.4 11.6 9.5 77 2.0 WNW 9 11 5 6 1010.8 1010.8 0.0
26/03:30am 13.1 10.9 9.4 78 1.9 WNW 11 13 6 7 1010.6 1010.6 0.0
26/03:00am 13.5 11.3 9.4 76 2.1 WNW 11 13 6 7 1010.5 1010.5 0.0
26/02:30am 14.2 11.6 9.4 73 2.5 WNW 13 17 7 9 1010.4 1010.4 0.0
26/02:00am 15.1 13.0 9.9 71 2.7 W 11 13 6 7 1010.2 1010.2 0.0
26/01:30am 14.3 12.6 9.7 74 2.4 WNW 9 11 5 6 1010.4 1010.4 0.0
26/01:00am 14.1 12.3 9.3 73 2.5 NW 9 11 5 6 1010.4 1010.4 0.0
26/12:30am 14.4 12.5 9.0 70 2.7 NW 9 9 5 5 1010.5 1010.5 0.0
26/12:00am 15.0 12.7 8.9 67 3.1 WNW 11 11 6 6 1010.8 1010.8 0.0
 
Date/Time
EST
Temp
°C
App
Temp
°C
Dew
Point
°C
Rel
Hum
%
Delta-T
°C
Wind Press
QNH
hPa
Press
MSL
hPa
Rain since
9am
mm
Dir  Spd
km/h
Gust
km/h
Spd
kts
Gust
kts
25/11:30pm 15.2 12.9 9.1 67 3.1 WNW 11 13 6 7 1010.7 1010.7 0.0
25/11:00pm 15.9 13.8 8.2 60 3.9 W 9 11 5 6 1010.4 1010.4 0.0
25/10:30pm 17.3 15.4 9.0 58 4.3 W 9 11 5 6 1010.4 1010.4 0.0
25/10:00pm 17.1 14.8 9.0 59 4.2 WNW 11 13 6 7 1010.2 1010.2 0.0
25/09:30pm 18.4 16.4 8.7 53 5.0 W 9 13 5 7 1010.1 1010.1 0.0
25/09:00pm 19.1 17.1 8.7 51 5.4 WSW 9 11 5 6 1010.0 1010.0 0.0
25/08:30pm 19.5 17.3 9.4 52 5.3 W 11 15 6 8 1009.6 1009.6 0.0
25/08:00pm 18.3 16.8 8.6 53 5.0 W 6 7 3 4 1009.2 1009.2 0.0
25/07:30pm 19.5 17.5 8.5 49 5.7 SW 9 15 5 8 1008.7 1008.7 0.0
25/07:00pm 20.1 17.8 7.5 44 6.5 WSW 9 13 5 7 1008.1 1008.1 0.0
25/06:30pm 21.8 19.2 7.6 40 7.4 WSW 11 20 6 11 1007.6 1007.6 0.0
25/06:00pm 22.1 19.0 7.1 38 7.7 SW 13 22 7 12 1007.0 1007.0 0.0
25/05:30pm 23.4 20.2 6.7 34 8.6 SSW 13 17 7 9 1006.3 1006.3 0.0
25/05:00pm 24.5 20.4 6.3 31 9.4 WSW 17 30 9 16 1005.6 1005.6 0.0
25/04:30pm 25.8 21.6 5.9 28 10.3 WSW 17 28 9 15 1004.9 1004.9 0.0
25/04:00pm 26.7 20.7 5.1 25 11.1 W 26 41 14 22 1004.2 1004.2 0.0
25/03:30pm 27.3 21.8 6.1 26 11.1 W 24 39 13 21 1003.9 1003.9 0.0
25/03:00pm 27.5 23.0 6.8 27 11.0 W 20 37 11 20 1003.9 1003.9 0.0
25/02:30pm 25.3 21.4 7.0 31 9.6 W 17 32 9 17 1004.1 1004.1 0.0
25/02:00pm 24.7 21.2 10.2 40 8.0 WNW 19 28 10 15 1004.2 1004.2 0.0
25/01:30pm 25.8 21.6 12.3 43 7.8 NW 26 43 14 23 1004.4 1004.4 0.0
25/01:00pm 26.6 20.0 9.9 35 9.3 NW 35 46 19 25 1004.5 1004.5 0.0
25/12:30pm 26.5 20.4 9.8 35 9.3 NW 32 41 17 22 1004.8 1004.8 0.0
25/12:00pm 27.9 23.0 10.1 33 10.0 NW 26 39 14 21 1005.0 1005.0 0.0
25/11:52am 27.0 22.9 10.2 35 9.4 WNW 22 39 12 21 1005.2 1005.2 0.0
25/11:30am 26.0 24.2 11.0 39 8.5 NW 11 19 6 10 1005.7 1005.7 0.0
25/11:00am 26.4 23.2 11.3 39 8.6 NW 19 30 10 16 1006.1 1006.1 0.0
25/10:30am 24.6 21.4 10.1 40 8.0 NNW 17 24 9 13 1006.9 1006.9 0.0
25/10:00am 24.0 21.2 9.9 41 7.7 NNW 15 20 8 11 1007.3 1007.3 0.0
25/09:30am 23.5 20.3 9.9 42 7.4 NW 17 28 9 15 1007.9 1007.9 0.0
25/09:00am 22.5 18.5 9.0 42 7.2 NW 20 28 11 15 1008.2 1008.2 0.0
25/08:30am 20.9 18.5 12.6 59 4.7 NNW 17 24 9 13 1008.2 1008.2 0.0
25/08:00am 17.9 16.0 11.7 67 3.4 WNW 13 20 7 11 1008.7 1008.7 0.0
25/07:30am 15.5 14.4 11.9 79 2.0 WNW 9 11 5 6 1008.9 1008.9 0.0
25/07:00am 14.9 13.0 11.7 81 1.7 NW 13 17 7 9 1009.0 1009.0 0.0
25/06:30am 14.0 12.7 11.2 83 1.5 WNW 9 13 5 7 1008.4 1008.4 0.0
25/06:00am 13.2 12.2 10.9 86 1.2 W 7 11 4 6 1008.6 1008.6 0.0
25/05:30am 13.4 11.6 10.9 85 1.3 W 11 13 6 7 1008.3 1008.3 0.0
25/05:00am 13.2 12.2 10.9 86 1.2 W 7 11 4 6 1008.3 1008.3 0.0
25/04:30am 12.9 11.8 10.6 86 1.2 WNW 7 9 4 5 1008.2 1008.2 0.0
25/04:00am 13.2 11.4 10.9 86 1.2 NW 11 17 6 9 1007.6 1007.6 0.0
25/03:30am 12.6 11.5 10.8 89 0.9 NW 7 11 4 6 1007.8 1007.8 0.0
25/03:00am 12.7 11.3 10.8 88 1.0 WNW 9 11 5 6 1007.9 1007.9 0.0
25/02:30am 12.8 11.4 11.0 89 0.9 WNW 9 11 5 6 1008.0 1008.0 0.0
25/02:00am 13.2 11.3 11.8 91 0.7 WNW 13 15 7 8 1008.4 1008.4 0.0
25/01:30am 13.0 11.9 11.9 93 0.6 W 9 11 5 6 1008.6 1008.6 0.0
25/01:00am 13.0 11.9 11.9 93 0.6 WNW 9 11 5 6 1009.1 1009.1 0.0
25/12:30am 11.6 10.5 9.9 89 0.9 WNW 6 7 3 4 1009.2 1009.2 0.0
25/12:00am 12.2 11.1 10.8 91 0.7 WNW 7 7 4 4 1009.3 1009.3 0.0
 
Date/Time
EST
Temp
°C
App
Temp
°C
Dew
Point
°C
Rel
Hum
%
Delta-T
°C
Wind Press
QNH
hPa
Press
MSL
hPa
Rain since
9am
mm
Dir  Spd
km/h
Gust
km/h
Spd
kts
Gust
kts
24/11:30pm 11.8 10.6 9.5 86 1.2 WNW 6 9 3 5 1009.3 1009.3 0.0
24/11:00pm 12.7 11.7 10.4 86 1.2 W 6 9 3 5 1009.6 1009.6 0.0
24/10:30pm 12.1 11.8 10.0 87 1.1 W 2 9 1 5 1009.7 1009.7 0.0
24/10:00pm 13.2 12.3 10.7 85 1.3 WNW 6 9 3 5 1009.7 1009.7 0.0
24/09:30pm 13.0 13.1 10.0 82 1.5 CALM 0 0 0 0 1009.7 1009.7 0.0
24/09:00pm 13.7 13.7 9.9 78 2.0 CALM 0 0 0 0 1009.3 1009.3 0.0
24/08:30pm 14.6 13.5 10.0 74 2.4 ESE 6 9 3 5 1009.3 1009.3 0.0
24/08:00pm 15.4 13.5 10.6 73 2.5 SE 11 13 6 7 1009.4 1009.4 0.0
24/07:30pm 16.0 14.4 10.3 69 3.0 E 9 13 5 7 1009.5 1009.5 0.0
24/07:00pm 16.6 14.6 10.2 66 3.4 E 11 15 6 8 1009.3 1009.3 0.0
24/06:30pm 17.9 15.8 11.2 65 3.6 E 13 20 7 11 1009.0 1009.0 0.0
24/06:00pm 18.9 17.0 12.9 68 3.4 E 15 19 8 10 1008.9 1008.9 0.0
24/05:30pm 20.3 17.8 14.0 67 3.6 E 20 28 11 15 1008.4 1008.4 0.0
24/05:00pm 21.9 18.8 14.5 63 4.4 ENE 24 32 13 17 1008.1 1008.1 0.0
24/04:30pm 23.3 20.1 14.3 57 5.3 ENE 24 30 13 16 1007.9 1007.9 0.0
24/04:00pm 24.3 21.2 14.4 54 5.9 ENE 24 30 13 16 1007.5 1007.5 0.0
24/03:30pm 25.1 21.9 14.3 51 6.4 E 24 30 13 16 1007.6 1007.6 0.0
24/03:00pm 25.5 22.8 13.4 47 7.1 ENE 20 28 11 15 1007.6 1007.6 0.0
24/02:30pm 25.0 22.3 11.6 43 7.6 E 17 24 9 13 1007.8 1007.8 0.0
24/02:00pm 26.5 24.7 9.4 34 9.4 NE 9 17 5 9 1008.0 1008.0 0.0
24/01:30pm 26.6 24.3 9.0 33 9.6 N 11 17 6 9 1008.6 1008.6 0.0
24/01:00pm 24.4 22.6 9.6 39 8.1 N 9 15 5 8 1009.1 1009.1 0.0
24/12:30pm 25.5 24.5 10.9 40 8.2 NW 7 11 4 6 1009.5 1009.5 0.0
24/12:00pm 25.4 24.8 12.3 44 7.5 S 7 15 4 8 1010.1 1010.1 0.0
24/11:30am 23.0 21.9 10.8 46 6.8 NNW 7 13 4 7 1010.7 1010.7 0.0
24/11:00am 24.4 24.0 12.4 47 6.9 ENE 6 15 3 8 1011.1 1011.1 0.0
24/10:30am 22.8 21.9 11.2 48 6.5 NE 7 11 4 6 1011.7 1011.7 0.0
24/10:00am 22.1 22.1 11.2 50 6.1 NNE 2 9 1 5 1012.2 1012.2 0.0
24/09:30am 21.5 20.7 11.8 54 5.4 NW 7 11 4 6 1012.6 1012.6 0.0
24/09:00am 20.4 19.4 11.1 55 5.1 WNW 7 11 4 6 1013.0 1013.0 0.0
24/08:30am 19.2 18.0 11.7 62 4.1 WNW 9 13 5 7 1013.2 1013.2 0.0
24/08:00am 17.9 16.8 11.9 68 3.3 NW 9 11 5 6 1013.2 1013.2 0.0
24/07:30am 16.2 14.7 12.0 76 2.3 NW 11 13 6 7 1013.1 1013.1 0.0
24/07:00am 13.8 12.3 10.4 80 1.8 NW 9 11 5 6 1012.8 1012.8 0.0
24/06:30am 12.3 11.2 10.7 90 0.8 NW 7 11 4 6 1012.4 1012.4 0.0
24/06:00am 10.4 8.9 9.3 93 0.5 WNW 7 9 4 5 1012.1 1012.1 0.0
24/05:30am 9.2 7.6 8.0 92 0.6 W 6 7 3 4 1011.8 1011.8 0.0
24/05:00am 9.5 8.0 8.3 92 0.6 W 6 7 3 4 1011.4 1011.4 0.0
24/04:30am 9.8 8.2 8.6 92 0.6 W 7 9 4 5 1011.2 1011.2 0.0
24/04:00am 9.7 8.1 8.1 90 0.8 W 6 7 3 4 1010.9 1010.9 0.0
24/03:30am 10.3 8.8 8.6 89 0.8 W 6 7 3 4 1010.7 1010.7 0.0
24/03:00am 11.3 9.9 9.7 90 0.8 WNW 7 9 4 5 1010.8 1010.8 0.0
24/02:30am 11.4 10.1 9.8 90 0.8 W 7 9 4 5 1011.0 1011.0 0.0
24/02:00am 11.7 10.5 10.3 91 0.7 NW 7 9 4 5 1011.2 1011.2 0.0
24/01:30am 11.6 10.4 10.2 91 0.7 WNW 7 7 4 4 1011.2 1011.2 0.0
24/01:00am 11.5 10.2 10.1 91 0.7 WNW 7 9 4 5 1011.3 1011.3 0.0
24/12:30am 11.9 10.8 10.6 92 0.7 W 7 9 4 5 1011.1 1011.1 0.0
24/12:00am 11.7 10.6 9.8 88 1.0 WNW 6 7 3 4 1011.3 1011.3 0.0
 
Date/Time
EST
Temp
°C
App
Temp
°C
Dew
Point
°C
Rel
Hum
%
Delta-T
°C
Wind Press
QNH
hPa
Press
MSL
hPa
Rain since
9am
mm
Dir  Spd
km/h
Gust
km/h
Spd
kts
Gust
kts
23/11:30pm 12.0 11.1 10.6 91 0.7 WNW 6 9 3 5 1011.2 1011.2 0.0
23/11:00pm 11.6 9.9 9.9 89 0.9 N 9 13 5 7 1011.1 1011.1 0.0
23/10:30pm 11.7 11.6 9.4 86 1.2 CALM 0 4 0 2 1011.3 1011.3 0.0
23/10:00pm 12.7 11.6 10.6 87 1.1 S 7 9 4 5 1011.4 1011.4 0.0
23/09:30pm 12.9 11.8 10.6 86 1.2 SW 7 9 4 5 1011.3 1011.3 0.0
23/09:00pm 13.7 13.6 10.7 82 1.6 SSW 2 7 1 4 1011.3 1011.3 0.0
23/08:30pm 14.7 13.9 10.9 78 2.0 SSE 6 7 3 4 1011.1 1011.1 0.0
23/08:00pm 15.6 14.7 11.2 75 2.4 SE 7 11 4 6 1010.7 1010.7 0.0
23/07:30pm 16.9 14.9 11.6 71 2.9 SE 13 15 7 8 1010.3 1010.3 0.0
23/07:00pm 18.0 15.7 11.6 66 3.5 SE 15 20 8 11 1009.8 1009.8 0.0
23/06:30pm 19.3 17.1 10.8 58 4.6 SE 13 19 7 10 1009.4 1009.4 0.0
23/06:00pm 20.2 18.0 10.9 55 5.1 SE 13 20 7 11 1009.1 1009.1 0.0
23/05:30pm 22.8 22.4 12.4 52 5.9 E 6 6 3 3 1008.2 1008.2 0.0
23/05:00pm 22.9 22.2 11.9 50 6.2 NE 7 9 4 5 1007.7 1007.7 0.0
23/04:30pm 23.6 22.3 9.9 42 7.5 NE 7 9 4 5 1007.3 1007.3 0.0
23/04:00pm 24.7 23.5 9.4 38 8.4 ENE 6 7 3 4 1007.2 1007.2 0.0
23/03:30pm 25.4 23.3 6.6 30 9.8 NW 7 11 4 6 1007.4 1007.4 0.0
23/03:00pm 25.8 23.8 6.9 30 9.9 SW 7 17 4 9 1007.3 1007.3 0.0
23/02:30pm 26.6 23.8 7.1 29 10.3 WNW 11 19 6 10 1007.6 1007.6 0.0
23/02:00pm 25.8 23.9 6.9 30 9.9 S 6 9 3 5 1007.9 1007.9 0.0
23/01:30pm 25.5 22.5 6.2 29 10.0 NW 11 24 6 13 1008.2 1008.2 0.0
23/01:00pm 24.6 21.3 6.4 31 9.4 WNW 13 20 7 11 1008.5 1008.5 0.0
23/12:30pm 23.7 20.6 5.6 31 9.2 WSW 11 20 6 11 1008.9 1008.9 0.0
23/12:00pm 24.2 21.9 7.4 34 8.8 W 9 20 5 11 1009.3 1009.3 0.0
23/11:30am 23.9 22.2 8.3 37 8.3 S 7 11 4 6 1009.8 1009.8 0.0
23/11:00am 22.6 19.7 6.4 35 8.3 NNW 11 22 6 12 1010.1 1010.1 0.0
23/10:30am 22.9 20.6 7.4 37 8.1 NW 9 15 5 8 1010.5 1010.5 0.0
23/10:00am 21.6 19.0 6.3 37 7.7 NW 9 17 5 9 1011.0 1011.0 0.0
23/09:30am 20.9 18.3 7.9 43 6.7 NW 11 17 6 9 1011.3 1011.3 0.0
23/09:00am 19.9 17.0 8.3 47 6.0 NW 13 20 7 11 1011.4 1011.4 0.0

Other Formats:

Comma delimited format used in spreadsheet applications
http://www.bom.gov.au/fwo/IDN60801/IDN60801.94573.axf

JavaScript Object Notation format (JSON) in row-major order
http://www.bom.gov.au/fwo/IDN60801/IDN60801.94573.json